sensor_id;sensor_type;location;lat;lon;timestamp;P1;durP1;ratioP1;P2;durP2;ratioP2
44143;SDS011;43510;51.920;4.492;2022-07-05T00:00:38;6.05;;;2.10;;
44143;SDS011;43510;51.920;4.492;2022-07-05T00:03:04;4.90;;;1.85;;
44143;SDS011;43510;51.920;4.492;2022-07-05T00:05:30;9.48;;;2.40;;
44143;SDS011;43510;51.920;4.492;2022-07-05T00:07:56;4.90;;;2.13;;
44143;SDS011;43510;51.920;4.492;2022-07-05T00:10:21;5.20;;;2.40;;
44143;SDS011;43510;51.920;4.492;2022-07-05T00:12:47;6.55;;;1.92;;
44143;SDS011;43510;51.920;4.492;2022-07-05T00:15:12;4.55;;;2.08;;
44143;SDS011;43510;51.920;4.492;2022-07-05T00:17:37;5.82;;;2.00;;
44143;SDS011;43510;51.920;4.492;2022-07-05T00:20:03;8.43;;;2.33;;
44143;SDS011;43510;51.920;4.492;2022-07-05T00:22:29;4.45;;;1.88;;
44143;SDS011;43510;51.920;4.492;2022-07-05T00:24:54;5.00;;;2.17;;
44143;SDS011;43510;51.920;4.492;2022-07-05T00:27:19;3.63;;;1.58;;
44143;SDS011;43510;51.920;4.492;2022-07-05T00:29:45;7.20;;;2.03;;
44143;SDS011;43510;51.920;4.492;2022-07-05T00:32:10;5.72;;;2.17;;
44143;SDS011;43510;51.920;4.492;2022-07-05T00:34:36;7.35;;;2.25;;
44143;SDS011;43510;51.920;4.492;2022-07-05T00:37:01;6.85;;;2.60;;
44143;SDS011;43510;51.920;4.492;2022-07-05T00:39:27;8.57;;;2.40;;
44143;SDS011;43510;51.920;4.492;2022-07-05T00:41:52;7.30;;;2.05;;
44143;SDS011;43510;51.920;4.492;2022-07-05T00:44:26;4.88;;;2.40;;
44143;SDS011;43510;51.920;4.492;2022-07-05T00:46:53;5.15;;;2.25;;
44143;SDS011;43510;51.920;4.492;2022-07-05T00:49:19;8.25;;;2.42;;
44143;SDS011;43510;51.920;4.492;2022-07-05T00:51:44;4.32;;;1.98;;
44143;SDS011;43510;51.920;4.492;2022-07-05T00:54:09;7.25;;;3.25;;
44143;SDS011;43510;51.920;4.492;2022-07-05T00:56:36;5.50;;;2.50;;
44143;SDS011;43510;51.920;4.492;2022-07-05T00:59:01;6.93;;;2.60;;
44143;SDS011;43510;51.920;4.492;2022-07-05T01:01:29;8.73;;;2.75;;
44143;SDS011;43510;51.920;4.492;2022-07-05T01:03:56;6.43;;;2.88;;
44143;SDS011;43510;51.920;4.492;2022-07-05T01:06:22;9.18;;;3.05;;
44143;SDS011;43510;51.920;4.492;2022-07-05T01:08:48;7.93;;;2.92;;
44143;SDS011;43510;51.920;4.492;2022-07-05T01:11:14;6.68;;;2.97;;
44143;SDS011;43510;51.920;4.492;2022-07-05T01:13:40;5.35;;;2.80;;
44143;SDS011;43510;51.920;4.492;2022-07-05T01:16:05;5.53;;;2.65;;
44143;SDS011;43510;51.920;4.492;2022-07-05T01:18:32;6.65;;;3.00;;
44143;SDS011;43510;51.920;4.492;2022-07-05T01:20:58;6.32;;;3.22;;
44143;SDS011;43510;51.920;4.492;2022-07-05T01:23:28;6.93;;;3.17;;
44143;SDS011;43510;51.920;4.492;2022-07-05T01:25:56;8.23;;;3.38;;
44143;SDS011;43510;51.920;4.492;2022-07-05T01:28:23;6.72;;;3.15;;
44143;SDS011;43510;51.920;4.492;2022-07-05T01:30:49;6.72;;;3.10;;
44143;SDS011;43510;51.920;4.492;2022-07-05T01:33:14;8.23;;;3.63;;
44143;SDS011;43510;51.920;4.492;2022-07-05T01:35:40;6.57;;;2.95;;
44143;SDS011;43510;51.920;4.492;2022-07-05T01:38:05;5.90;;;2.90;;
44143;SDS011;43510;51.920;4.492;2022-07-05T01:40:31;8.98;;;4.15;;
44143;SDS011;43510;51.920;4.492;2022-07-05T01:42:56;7.95;;;3.00;;
44143;SDS011;43510;51.920;4.492;2022-07-05T01:45:22;5.40;;;2.88;;
44143;SDS011;43510;51.920;4.492;2022-07-05T01:48:19;5.90;;;2.97;;
44143;SDS011;43510;51.920;4.492;2022-07-05T01:50:47;7.72;;;3.40;;
44143;SDS011;43510;51.920;4.492;2022-07-05T01:53:16;7.53;;;3.40;;
44143;SDS011;43510;51.920;4.492;2022-07-05T01:55:43;7.72;;;3.20;;
44143;SDS011;43510;51.920;4.492;2022-07-05T01:58:09;6.15;;;3.03;;
44143;SDS011;43510;51.920;4.492;2022-07-05T02:00:48;7.78;;;2.92;;
44143;SDS011;43510;51.920;4.492;2022-07-05T02:03:15;8.15;;;3.28;;
44143;SDS011;43510;51.920;4.492;2022-07-05T02:05:42;7.70;;;3.45;;
44143;SDS011;43510;51.920;4.492;2022-07-05T02:08:09;7.53;;;3.35;;
44143;SDS011;43510;51.920;4.492;2022-07-05T02:10:35;6.25;;;3.15;;
44143;SDS011;43510;51.920;4.492;2022-07-05T02:13:02;7.25;;;3.40;;
44143;SDS011;43510;51.920;4.492;2022-07-05T02:15:29;9.60;;;3.72;;
44143;SDS011;43510;51.920;4.492;2022-07-05T02:17:55;10.00;;;3.55;;
44143;SDS011;43510;51.920;4.492;2022-07-05T02:20:21;9.07;;;4.57;;
44143;SDS011;43510;51.920;4.492;2022-07-05T02:22:46;7.75;;;3.13;;
44143;SDS011;43510;51.920;4.492;2022-07-05T02:25:11;9.60;;;3.70;;
44143;SDS011;43510;51.920;4.492;2022-07-05T02:27:37;6.72;;;3.10;;
44143;SDS011;43510;51.920;4.492;2022-07-05T02:30:03;11.52;;;3.75;;
44143;SDS011;43510;51.920;4.492;2022-07-05T02:32:28;8.25;;;4.25;;
44143;SDS011;43510;51.920;4.492;2022-07-05T02:34:56;10.70;;;4.30;;
44143;SDS011;43510;51.920;4.492;2022-07-05T02:37:21;10.20;;;4.68;;
44143;SDS011;43510;51.920;4.492;2022-07-05T02:39:47;7.90;;;4.00;;
44143;SDS011;43510;51.920;4.492;2022-07-05T02:42:12;10.70;;;4.53;;
44143;SDS011;43510;51.920;4.492;2022-07-05T02:47:07;6.63;;;3.63;;
44143;SDS011;43510;51.920;4.492;2022-07-05T02:49:32;7.45;;;4.15;;
44143;SDS011;43510;51.920;4.492;2022-07-05T02:51:58;10.45;;;4.25;;
44143;SDS011;43510;51.920;4.492;2022-07-05T02:54:23;10.63;;;5.03;;
44143;SDS011;43510;51.920;4.492;2022-07-05T02:56:49;9.23;;;4.47;;
44143;SDS011;43510;51.920;4.492;2022-07-05T02:59:15;9.48;;;5.03;;
44143;SDS011;43510;51.920;4.492;2022-07-05T03:01:40;9.95;;;5.13;;
44143;SDS011;43510;51.920;4.492;2022-07-05T03:04:05;11.68;;;5.28;;
44143;SDS011;43510;51.920;4.492;2022-07-05T03:06:31;10.30;;;5.18;;
44143;SDS011;43510;51.920;4.492;2022-07-05T03:08:57;10.77;;;5.68;;
44143;SDS011;43510;51.920;4.492;2022-07-05T03:11:23;10.05;;;5.47;;
44143;SDS011;43510;51.920;4.492;2022-07-05T03:13:49;15.23;;;6.80;;
44143;SDS011;43510;51.920;4.492;2022-07-05T03:16:14;12.68;;;5.13;;
44143;SDS011;43510;51.920;4.492;2022-07-05T03:18:39;10.60;;;5.65;;
44143;SDS011;43510;51.920;4.492;2022-07-05T03:21:05;11.23;;;6.10;;
44143;SDS011;43510;51.920;4.492;2022-07-05T03:23:30;10.80;;;5.40;;
44143;SDS011;43510;51.920;4.492;2022-07-05T03:25:55;10.55;;;5.65;;
44143;SDS011;43510;51.920;4.492;2022-07-05T03:28:21;10.05;;;5.55;;
44143;SDS011;43510;51.920;4.492;2022-07-05T03:30:46;10.90;;;5.72;;
44143;SDS011;43510;51.920;4.492;2022-07-05T03:33:11;11.55;;;5.68;;
44143;SDS011;43510;51.920;4.492;2022-07-05T03:35:37;13.13;;;5.50;;
44143;SDS011;43510;51.920;4.492;2022-07-05T03:38:02;10.27;;;5.43;;
44143;SDS011;43510;51.920;4.492;2022-07-05T03:40:28;9.38;;;5.78;;
44143;SDS011;43510;51.920;4.492;2022-07-05T03:42:53;15.15;;;6.55;;
44143;SDS011;43510;51.920;4.492;2022-07-05T03:45:18;15.13;;;6.18;;
44143;SDS011;43510;51.920;4.492;2022-07-05T03:47:44;10.55;;;5.85;;
44143;SDS011;43510;51.920;4.492;2022-07-05T03:50:09;13.25;;;5.63;;
44143;SDS011;43510;51.920;4.492;2022-07-05T03:52:35;11.43;;;5.65;;
44143;SDS011;43510;51.920;4.492;2022-07-05T03:55:00;11.60;;;5.53;;
44143;SDS011;43510;51.920;4.492;2022-07-05T03:57:26;14.27;;;5.80;;
44143;SDS011;43510;51.920;4.492;2022-07-05T03:59:51;10.90;;;5.15;;
44143;SDS011;43510;51.920;4.492;2022-07-05T04:02:17;14.38;;;6.13;;
44143;SDS011;43510;51.920;4.492;2022-07-05T04:04:43;13.45;;;6.10;;
44143;SDS011;43510;51.920;4.492;2022-07-05T04:07:08;11.52;;;5.32;;
44143;SDS011;43510;51.920;4.492;2022-07-05T04:09:34;11.57;;;5.40;;
44143;SDS011;43510;51.920;4.492;2022-07-05T04:11:59;10.23;;;5.70;;
44143;SDS011;43510;51.920;4.492;2022-07-05T04:14:25;10.20;;;5.78;;
44143;SDS011;43510;51.920;4.492;2022-07-05T04:16:50;10.43;;;5.47;;
44143;SDS011;43510;51.920;4.492;2022-07-05T04:19:15;10.07;;;5.28;;
44143;SDS011;43510;51.920;4.492;2022-07-05T04:21:41;11.77;;;5.13;;
44143;SDS011;43510;51.920;4.492;2022-07-05T04:24:06;12.82;;;5.50;;
44143;SDS011;43510;51.920;4.492;2022-07-05T04:26:32;11.93;;;5.25;;
44143;SDS011;43510;51.920;4.492;2022-07-05T04:28:58;10.25;;;5.63;;
44143;SDS011;43510;51.920;4.492;2022-07-05T04:31:23;12.07;;;6.10;;
44143;SDS011;43510;51.920;4.492;2022-07-05T04:33:48;13.23;;;6.00;;
44143;SDS011;43510;51.920;4.492;2022-07-05T04:36:14;11.77;;;5.80;;
44143;SDS011;43510;51.920;4.492;2022-07-05T04:38:39;10.77;;;5.50;;
44143;SDS011;43510;51.920;4.492;2022-07-05T04:41:04;10.52;;;5.45;;
44143;SDS011;43510;51.920;4.492;2022-07-05T04:43:30;12.77;;;5.80;;
44143;SDS011;43510;51.920;4.492;2022-07-05T04:45:58;8.15;;;5.70;;
44143;SDS011;43510;51.920;4.492;2022-07-05T04:48:23;12.25;;;5.60;;
44143;SDS011;43510;51.920;4.492;2022-07-05T04:50:49;15.00;;;5.90;;
44143;SDS011;43510;51.920;4.492;2022-07-05T04:53:14;10.43;;;5.80;;
44143;SDS011;43510;51.920;4.492;2022-07-05T04:55:39;14.90;;;5.35;;
44143;SDS011;43510;51.920;4.492;2022-07-05T04:58:05;8.77;;;4.80;;
44143;SDS011;43510;51.920;4.492;2022-07-05T05:00:31;10.27;;;5.03;;
44143;SDS011;43510;51.920;4.492;2022-07-05T05:02:56;10.52;;;5.05;;
44143;SDS011;43510;51.920;4.492;2022-07-05T05:05:22;8.77;;;4.30;;
44143;SDS011;43510;51.920;4.492;2022-07-05T05:07:47;8.48;;;4.57;;
44143;SDS011;43510;51.920;4.492;2022-07-05T05:10:12;9.05;;;3.92;;
44143;SDS011;43510;51.920;4.492;2022-07-05T05:12:38;9.60;;;4.00;;
44143;SDS011;43510;51.920;4.492;2022-07-05T05:15:04;9.18;;;4.15;;
44143;SDS011;43510;51.920;4.492;2022-07-05T05:17:34;8.10;;;3.50;;
44143;SDS011;43510;51.920;4.492;2022-07-05T05:20:04;7.32;;;3.97;;
44143;SDS011;43510;51.920;4.492;2022-07-05T05:22:33;9.05;;;4.57;;
44143;SDS011;43510;51.920;4.492;2022-07-05T05:24:58;8.25;;;3.83;;
44143;SDS011;43510;51.920;4.492;2022-07-05T05:27:23;13.48;;;4.03;;
44143;SDS011;43510;51.920;4.492;2022-07-05T05:29:49;8.90;;;4.45;;
44143;SDS011;43510;51.920;4.492;2022-07-05T05:32:14;5.30;;;2.90;;
44143;SDS011;43510;51.920;4.492;2022-07-05T05:34:39;9.05;;;3.40;;
44143;SDS011;43510;51.920;4.492;2022-07-05T05:37:05;6.78;;;2.53;;
44143;SDS011;43510;51.920;4.492;2022-07-05T05:39:30;6.97;;;2.90;;
44143;SDS011;43510;51.920;4.492;2022-07-05T05:41:55;4.57;;;2.13;;
44143;SDS011;43510;51.920;4.492;2022-07-05T05:44:21;6.20;;;1.70;;
44143;SDS011;43510;51.920;4.492;2022-07-05T05:46:47;3.35;;;1.73;;
44143;SDS011;43510;51.920;4.492;2022-07-05T05:49:12;5.82;;;1.67;;
44143;SDS011;43510;51.920;4.492;2022-07-05T05:51:38;3.03;;;1.42;;
44143;SDS011;43510;51.920;4.492;2022-07-05T05:54:04;3.38;;;1.50;;
44143;SDS011;43510;51.920;4.492;2022-07-05T05:56:29;5.35;;;1.60;;
44143;SDS011;43510;51.920;4.492;2022-07-05T05:58:54;4.93;;;1.70;;
44143;SDS011;43510;51.920;4.492;2022-07-05T06:01:20;7.30;;;1.90;;
44143;SDS011;43510;51.920;4.492;2022-07-05T06:03:45;3.80;;;1.45;;
44143;SDS011;43510;51.920;4.492;2022-07-05T06:06:11;4.60;;;1.50;;
44143;SDS011;43510;51.920;4.492;2022-07-05T06:08:37;5.38;;;1.58;;
44143;SDS011;43510;51.920;4.492;2022-07-05T06:11:02;4.35;;;1.45;;
44143;SDS011;43510;51.920;4.492;2022-07-05T06:13:29;7.55;;;1.60;;
44143;SDS011;43510;51.920;4.492;2022-07-05T06:15:55;3.75;;;1.50;;
44143;SDS011;43510;51.920;4.492;2022-07-05T06:18:20;5.57;;;1.60;;
44143;SDS011;43510;51.920;4.492;2022-07-05T06:20:47;6.70;;;1.90;;
44143;SDS011;43510;51.920;4.492;2022-07-05T06:23:13;6.80;;;1.38;;
44143;SDS011;43510;51.920;4.492;2022-07-05T06:25:38;4.90;;;1.60;;
44143;SDS011;43510;51.920;4.492;2022-07-05T06:28:05;5.78;;;1.48;;
44143;SDS011;43510;51.920;4.492;2022-07-05T06:30:34;5.03;;;1.58;;
44143;SDS011;43510;51.920;4.492;2022-07-05T06:33:00;3.78;;;1.48;;
44143;SDS011;43510;51.920;4.492;2022-07-05T06:35:26;5.10;;;1.33;;
44143;SDS011;43510;51.920;4.492;2022-07-05T06:38:13;4.55;;;1.52;;
44143;SDS011;43510;51.920;4.492;2022-07-05T06:40:40;4.40;;;1.50;;
44143;SDS011;43510;51.920;4.492;2022-07-05T06:43:10;4.00;;;1.25;;
44143;SDS011;43510;51.920;4.492;2022-07-05T06:45:37;5.18;;;1.50;;
44143;SDS011;43510;51.920;4.492;2022-07-05T06:48:03;5.18;;;2.00;;
44143;SDS011;43510;51.920;4.492;2022-07-05T06:50:32;4.53;;;1.48;;
44143;SDS011;43510;51.920;4.492;2022-07-05T06:53:00;4.38;;;1.27;;
44143;SDS011;43510;51.920;4.492;2022-07-05T06:55:28;2.78;;;1.13;;
44143;SDS011;43510;51.920;4.492;2022-07-05T06:57:57;2.47;;;1.15;;
44143;SDS011;43510;51.920;4.492;2022-07-05T07:00:31;4.10;;;1.10;;
44143;SDS011;43510;51.920;4.492;2022-07-05T07:02:59;3.20;;;1.33;;
44143;SDS011;43510;51.920;4.492;2022-07-05T07:05:25;6.03;;;1.30;;
44143;SDS011;43510;51.920;4.492;2022-07-05T07:07:51;3.17;;;0.82;;
44143;SDS011;43510;51.920;4.492;2022-07-05T07:10:36;2.25;;;0.90;;
44143;SDS011;43510;51.920;4.492;2022-07-05T07:13:01;3.53;;;0.80;;
44143;SDS011;43510;51.920;4.492;2022-07-05T07:15:27;2.92;;;0.90;;
44143;SDS011;43510;51.920;4.492;2022-07-05T07:17:54;1.30;;;0.70;;
44143;SDS011;43510;51.920;4.492;2022-07-05T07:20:20;6.40;;;1.02;;
44143;SDS011;43510;51.920;4.492;2022-07-05T07:22:45;6.43;;;1.00;;
44143;SDS011;43510;51.920;4.492;2022-07-05T07:25:10;2.67;;;0.75;;
44143;SDS011;43510;51.920;4.492;2022-07-05T07:30:14;2.22;;;0.80;;
44143;SDS011;43510;51.920;4.492;2022-07-05T07:32:41;1.75;;;0.80;;
44143;SDS011;43510;51.920;4.492;2022-07-05T07:35:07;2.78;;;0.68;;
44143;SDS011;43510;51.920;4.492;2022-07-05T07:37:33;2.30;;;0.77;;
44143;SDS011;43510;51.920;4.492;2022-07-05T07:39:59;2.83;;;0.75;;
44143;SDS011;43510;51.920;4.492;2022-07-05T07:42:26;3.85;;;0.75;;
44143;SDS011;43510;51.920;4.492;2022-07-05T07:44:53;8.48;;;1.35;;
44143;SDS011;43510;51.920;4.492;2022-07-05T07:47:19;2.15;;;0.75;;
44143;SDS011;43510;51.920;4.492;2022-07-05T07:49:44;3.45;;;0.75;;
44143;SDS011;43510;51.920;4.492;2022-07-05T07:52:10;4.15;;;0.60;;
44143;SDS011;43510;51.920;4.492;2022-07-05T07:54:35;3.05;;;0.52;;
44143;SDS011;43510;51.920;4.492;2022-07-05T07:57:01;3.45;;;0.52;;
44143;SDS011;43510;51.920;4.492;2022-07-05T07:59:33;1.30;;;0.43;;
44143;SDS011;43510;51.920;4.492;2022-07-05T08:01:59;4.35;;;0.50;;
44143;SDS011;43510;51.920;4.492;2022-07-05T08:04:25;3.38;;;0.60;;
44143;SDS011;43510;51.920;4.492;2022-07-05T08:06:51;4.75;;;0.80;;
44143;SDS011;43510;51.920;4.492;2022-07-05T08:09:17;3.47;;;0.70;;
44143;SDS011;43510;51.920;4.492;2022-07-05T08:11:42;1.88;;;0.57;;
44143;SDS011;43510;51.920;4.492;2022-07-05T08:14:08;3.05;;;0.75;;
44143;SDS011;43510;51.920;4.492;2022-07-05T08:16:33;5.35;;;0.60;;
44143;SDS011;43510;51.920;4.492;2022-07-05T08:18:58;4.47;;;0.70;;
44143;SDS011;43510;51.920;4.492;2022-07-05T08:21:42;3.10;;;0.70;;
44143;SDS011;43510;51.920;4.492;2022-07-05T08:24:08;2.28;;;0.68;;
44143;SDS011;43510;51.920;4.492;2022-07-05T08:26:37;2.55;;;0.60;;
44143;SDS011;43510;51.920;4.492;2022-07-05T08:29:04;2.47;;;0.50;;
44143;SDS011;43510;51.920;4.492;2022-07-05T08:31:33;2.53;;;0.75;;
44143;SDS011;43510;51.920;4.492;2022-07-05T08:34:01;6.05;;;0.77;;
44143;SDS011;43510;51.920;4.492;2022-07-05T08:36:26;2.75;;;0.85;;
44143;SDS011;43510;51.920;4.492;2022-07-05T08:38:52;1.92;;;0.77;;
44143;SDS011;43510;51.920;4.492;2022-07-05T08:41:20;3.63;;;1.02;;
44143;SDS011;43510;51.920;4.492;2022-07-05T08:43:47;4.07;;;0.70;;
44143;SDS011;43510;51.920;4.492;2022-07-05T08:46:15;1.70;;;0.70;;
44143;SDS011;43510;51.920;4.492;2022-07-05T08:48:41;4.80;;;1.10;;
44143;SDS011;43510;51.920;4.492;2022-07-05T08:51:12;1.90;;;0.50;;
44143;SDS011;43510;51.920;4.492;2022-07-05T08:53:46;3.90;;;0.55;;
44143;SDS011;43510;51.920;4.492;2022-07-05T08:56:12;5.97;;;1.08;;
44143;SDS011;43510;51.920;4.492;2022-07-05T08:58:38;5.53;;;0.88;;
44143;SDS011;43510;51.920;4.492;2022-07-05T09:01:04;6.93;;;0.77;;
44143;SDS011;43510;51.920;4.492;2022-07-05T09:03:32;4.60;;;0.45;;
44143;SDS011;43510;51.920;4.492;2022-07-05T09:06:02;3.55;;;0.65;;
44143;SDS011;43510;51.920;4.492;2022-07-05T09:08:32;5.63;;;0.98;;
44143;SDS011;43510;51.920;4.492;2022-07-05T09:11:04;2.88;;;0.60;;
44143;SDS011;43510;51.920;4.492;2022-07-05T09:13:33;4.90;;;0.75;;
44143;SDS011;43510;51.920;4.492;2022-07-05T09:15:59;1.10;;;0.47;;
44143;SDS011;43510;51.920;4.492;2022-07-05T09:21:30;1.75;;;0.63;;
44143;SDS011;43510;51.920;4.492;2022-07-05T09:26:44;5.32;;;0.93;;
44143;SDS011;43510;51.920;4.492;2022-07-05T09:29:18;3.80;;;0.50;;
44143;SDS011;43510;51.920;4.492;2022-07-05T09:31:46;5.07;;;0.70;;
44143;SDS011;43510;51.920;4.492;2022-07-05T09:34:15;3.58;;;0.90;;
44143;SDS011;43510;51.920;4.492;2022-07-05T09:36:57;2.85;;;0.77;;
44143;SDS011;43510;51.920;4.492;2022-07-05T09:44:35;3.58;;;0.80;;
44143;SDS011;43510;51.920;4.492;2022-07-05T09:47:09;3.17;;;0.65;;
44143;SDS011;43510;51.920;4.492;2022-07-05T09:49:37;3.15;;;0.85;;
44143;SDS011;43510;51.920;4.492;2022-07-05T09:52:03;2.80;;;1.10;;
44143;SDS011;43510;51.920;4.492;2022-07-05T09:54:28;3.17;;;0.60;;
44143;SDS011;43510;51.920;4.492;2022-07-05T09:56:54;4.85;;;0.70;;
44143;SDS011;43510;51.920;4.492;2022-07-05T09:59:19;4.28;;;0.98;;
44143;SDS011;43510;51.920;4.492;2022-07-05T10:01:47;4.40;;;0.80;;
44143;SDS011;43510;51.920;4.492;2022-07-05T10:04:12;1.58;;;0.43;;
44143;SDS011;43510;51.920;4.492;2022-07-05T10:06:38;5.43;;;1.20;;
44143;SDS011;43510;51.920;4.492;2022-07-05T10:09:03;5.38;;;0.98;;
44143;SDS011;43510;51.920;4.492;2022-07-05T10:11:29;7.30;;;0.80;;
44143;SDS011;43510;51.920;4.492;2022-07-05T10:13:57;6.57;;;1.13;;
44143;SDS011;43510;51.920;4.492;2022-07-05T10:16:23;7.40;;;1.00;;
44143;SDS011;43510;51.920;4.492;2022-07-05T10:18:53;5.30;;;1.27;;
44143;SDS011;43510;51.920;4.492;2022-07-05T10:21:21;6.63;;;1.08;;
44143;SDS011;43510;51.920;4.492;2022-07-05T10:23:50;3.15;;;1.02;;
44143;SDS011;43510;51.920;4.492;2022-07-05T10:26:18;4.45;;;0.90;;
44143;SDS011;43510;51.920;4.492;2022-07-05T10:28:46;6.63;;;0.90;;
44143;SDS011;43510;51.920;4.492;2022-07-05T10:31:15;2.08;;;0.57;;
44143;SDS011;43510;51.920;4.492;2022-07-05T10:33:41;5.15;;;1.27;;
44143;SDS011;43510;51.920;4.492;2022-07-05T10:36:07;7.45;;;1.10;;
44143;SDS011;43510;51.920;4.492;2022-07-05T10:38:44;3.33;;;0.90;;
44143;SDS011;43510;51.920;4.492;2022-07-05T10:41:13;7.68;;;1.42;;
44143;SDS011;43510;51.920;4.492;2022-07-05T10:43:42;9.15;;;1.50;;
44143;SDS011;43510;51.920;4.492;2022-07-05T10:46:07;6.43;;;1.25;;
44143;SDS011;43510;51.920;4.492;2022-07-05T10:48:33;6.00;;;0.93;;
44143;SDS011;43510;51.920;4.492;2022-07-05T10:51:15;5.97;;;1.20;;
44143;SDS011;43510;51.920;4.492;2022-07-05T10:58:45;4.38;;;0.85;;
44143;SDS011;43510;51.920;4.492;2022-07-05T11:11:32;4.75;;;0.85;;
44143;SDS011;43510;51.920;4.492;2022-07-05T11:14:02;2.70;;;0.55;;
44143;SDS011;43510;51.920;4.492;2022-07-05T11:16:29;4.93;;;0.75;;
44143;SDS011;43510;51.920;4.492;2022-07-05T11:21:59;4.63;;;0.82;;
44143;SDS011;43510;51.920;4.492;2022-07-05T11:24:26;3.03;;;0.82;;
44143;SDS011;43510;51.920;4.492;2022-07-05T11:26:57;2.63;;;0.63;;
44143;SDS011;43510;51.920;4.492;2022-07-05T11:35:17;1.02;;;0.40;;
44143;SDS011;43510;51.920;4.492;2022-07-05T11:40:30;2.83;;;0.75;;
44143;SDS011;43510;51.920;4.492;2022-07-05T11:42:57;7.63;;;0.77;;
44143;SDS011;43510;51.920;4.492;2022-07-05T11:45:23;2.03;;;0.70;;
44143;SDS011;43510;51.920;4.492;2022-07-05T11:47:50;2.08;;;0.80;;
44143;SDS011;43510;51.920;4.492;2022-07-05T11:50:24;1.88;;;0.50;;
44143;SDS011;43510;51.920;4.492;2022-07-05T11:52:54;4.43;;;0.93;;
44143;SDS011;43510;51.920;4.492;2022-07-05T11:55:20;1.17;;;0.50;;
44143;SDS011;43510;51.920;4.492;2022-07-05T11:57:49;2.33;;;0.82;;
44143;SDS011;43510;51.920;4.492;2022-07-05T12:02:56;4.25;;;0.70;;
44143;SDS011;43510;51.920;4.492;2022-07-05T12:05:21;2.47;;;0.60;;
44143;SDS011;43510;51.920;4.492;2022-07-05T12:07:50;4.65;;;0.60;;
44143;SDS011;43510;51.920;4.492;2022-07-05T12:10:17;8.95;;;1.63;;
44143;SDS011;43510;51.920;4.492;2022-07-05T12:13:03;5.07;;;0.85;;
44143;SDS011;43510;51.920;4.492;2022-07-05T12:15:32;7.05;;;1.30;;
44143;SDS011;43510;51.920;4.492;2022-07-05T12:17:59;3.20;;;0.80;;
44143;SDS011;43510;51.920;4.492;2022-07-05T12:20:28;1.58;;;0.52;;
44143;SDS011;43510;51.920;4.492;2022-07-05T12:22:54;3.58;;;0.70;;
44143;SDS011;43510;51.920;4.492;2022-07-05T12:25:20;5.13;;;1.02;;
44143;SDS011;43510;51.920;4.492;2022-07-05T12:27:48;2.92;;;0.82;;
44143;SDS011;43510;51.920;4.492;2022-07-05T12:30:16;8.90;;;1.25;;
44143;SDS011;43510;51.920;4.492;2022-07-05T12:38:18;4.05;;;0.70;;
44143;SDS011;43510;51.920;4.492;2022-07-05T12:40:45;4.40;;;0.63;;
44143;SDS011;43510;51.920;4.492;2022-07-05T12:43:28;2.63;;;0.80;;
44143;SDS011;43510;51.920;4.492;2022-07-05T12:46:00;4.70;;;0.63;;
44143;SDS011;43510;51.920;4.492;2022-07-05T12:48:34;4.63;;;0.45;;
44143;SDS011;43510;51.920;4.492;2022-07-05T12:51:02;1.45;;;0.40;;
44143;SDS011;43510;51.920;4.492;2022-07-05T12:53:28;2.80;;;0.88;;
44143;SDS011;43510;51.920;4.492;2022-07-05T12:56:13;3.58;;;1.10;;
44143;SDS011;43510;51.920;4.492;2022-07-05T12:58:59;1.75;;;0.68;;
44143;SDS011;43510;51.920;4.492;2022-07-05T13:12:13;3.20;;;0.68;;
44143;SDS011;43510;51.920;4.492;2022-07-05T13:14:44;5.18;;;0.90;;
44143;SDS011;43510;51.920;4.492;2022-07-05T13:17:12;3.28;;;1.15;;
44143;SDS011;43510;51.920;4.492;2022-07-05T13:19:38;1.65;;;0.70;;
44143;SDS011;43510;51.920;4.492;2022-07-05T13:22:05;5.85;;;1.10;;
44143;SDS011;43510;51.920;4.492;2022-07-05T13:24:31;3.95;;;0.82;;
44143;SDS011;43510;51.920;4.492;2022-07-05T13:26:57;4.18;;;0.73;;
44143;SDS011;43510;51.920;4.492;2022-07-05T13:29:23;2.10;;;0.70;;
44143;SDS011;43510;51.920;4.492;2022-07-05T13:31:49;4.82;;;0.75;;
44143;SDS011;43510;51.920;4.492;2022-07-05T13:34:15;2.53;;;0.77;;
44143;SDS011;43510;51.920;4.492;2022-07-05T13:36:41;7.10;;;0.70;;
44143;SDS011;43510;51.920;4.492;2022-07-05T13:39:06;2.40;;;0.80;;
44143;SDS011;43510;51.920;4.492;2022-07-05T13:41:32;3.53;;;1.10;;
44143;SDS011;43510;51.920;4.492;2022-07-05T13:43:58;3.83;;;1.90;;
44143;SDS011;43510;51.920;4.492;2022-07-05T13:46:24;6.70;;;1.02;;
44143;SDS011;43510;51.920;4.492;2022-07-05T13:48:50;4.20;;;1.05;;
44143;SDS011;43510;51.920;4.492;2022-07-05T13:51:16;3.15;;;1.17;;
44143;SDS011;43510;51.920;4.492;2022-07-05T13:53:41;3.25;;;0.80;;
44143;SDS011;43510;51.920;4.492;2022-07-05T13:56:07;2.90;;;0.95;;
44143;SDS011;43510;51.920;4.492;2022-07-05T13:58:32;2.90;;;0.80;;
44143;SDS011;43510;51.920;4.492;2022-07-05T14:00:59;2.38;;;0.45;;
44143;SDS011;43510;51.920;4.492;2022-07-05T14:03:25;2.88;;;0.75;;
44143;SDS011;43510;51.920;4.492;2022-07-05T14:05:50;2.50;;;0.75;;
44143;SDS011;43510;51.920;4.492;2022-07-05T14:08:15;4.65;;;0.90;;
44143;SDS011;43510;51.920;4.492;2022-07-05T14:10:46;3.55;;;0.80;;
44143;SDS011;43510;51.920;4.492;2022-07-05T14:13:16;3.35;;;0.90;;
44143;SDS011;43510;51.920;4.492;2022-07-05T14:15:45;4.32;;;1.13;;
44143;SDS011;43510;51.920;4.492;2022-07-05T14:18:13;3.42;;;0.73;;
44143;SDS011;43510;51.920;4.492;2022-07-05T14:20:39;3.55;;;0.73;;
44143;SDS011;43510;51.920;4.492;2022-07-05T14:23:05;2.80;;;0.70;;
44143;SDS011;43510;51.920;4.492;2022-07-05T14:25:30;1.85;;;0.70;;
44143;SDS011;43510;51.920;4.492;2022-07-05T14:28:03;2.45;;;0.68;;
44143;SDS011;43510;51.920;4.492;2022-07-05T14:30:39;2.67;;;0.88;;
44143;SDS011;43510;51.920;4.492;2022-07-05T14:33:07;5.82;;;0.70;;
44143;SDS011;43510;51.920;4.492;2022-07-05T14:35:33;4.63;;;0.80;;
44143;SDS011;43510;51.920;4.492;2022-07-05T14:37:58;4.03;;;0.90;;
44143;SDS011;43510;51.920;4.492;2022-07-05T14:40:25;5.00;;;0.70;;
44143;SDS011;43510;51.920;4.492;2022-07-05T14:42:52;4.53;;;1.08;;
44143;SDS011;43510;51.920;4.492;2022-07-05T14:45:19;1.85;;;0.70;;
44143;SDS011;43510;51.920;4.492;2022-07-05T14:47:45;3.42;;;0.98;;
44143;SDS011;43510;51.920;4.492;2022-07-05T14:50:11;1.88;;;0.63;;
44143;SDS011;43510;51.920;4.492;2022-07-05T14:52:38;2.75;;;0.98;;
44143;SDS011;43510;51.920;4.492;2022-07-05T14:55:04;2.70;;;0.80;;
44143;SDS011;43510;51.920;4.492;2022-07-05T14:57:30;3.30;;;1.00;;
44143;SDS011;43510;51.920;4.492;2022-07-05T14:59:56;4.68;;;0.93;;
44143;SDS011;43510;51.920;4.492;2022-07-05T15:02:21;3.53;;;0.80;;
44143;SDS011;43510;51.920;4.492;2022-07-05T15:04:46;3.55;;;0.82;;
44143;SDS011;43510;51.920;4.492;2022-07-05T15:07:12;5.40;;;0.93;;
44143;SDS011;43510;51.920;4.492;2022-07-05T15:09:38;2.53;;;1.15;;
44143;SDS011;43510;51.920;4.492;2022-07-05T15:12:04;4.90;;;0.82;;
44143;SDS011;43510;51.920;4.492;2022-07-05T15:14:31;2.95;;;0.65;;
44143;SDS011;43510;51.920;4.492;2022-07-05T15:16:56;2.80;;;0.82;;
44143;SDS011;43510;51.920;4.492;2022-07-05T15:19:22;3.05;;;0.80;;
44143;SDS011;43510;51.920;4.492;2022-07-05T15:21:48;3.55;;;0.85;;
44143;SDS011;43510;51.920;4.492;2022-07-05T15:24:14;4.43;;;0.70;;
44143;SDS011;43510;51.920;4.492;2022-07-05T15:26:40;2.38;;;0.50;;
44143;SDS011;43510;51.920;4.492;2022-07-05T15:29:06;4.93;;;1.08;;
44143;SDS011;43510;51.920;4.492;2022-07-05T15:31:34;5.63;;;0.93;;
44143;SDS011;43510;51.920;4.492;2022-07-05T15:34:01;3.60;;;1.05;;
44143;SDS011;43510;51.920;4.492;2022-07-05T15:36:27;3.13;;;0.85;;
44143;SDS011;43510;51.920;4.492;2022-07-05T15:38:56;2.97;;;0.70;;
44143;SDS011;43510;51.920;4.492;2022-07-05T15:41:23;6.18;;;1.13;;
44143;SDS011;43510;51.920;4.492;2022-07-05T15:43:49;2.00;;;0.73;;
44143;SDS011;43510;51.920;4.492;2022-07-05T15:46:14;4.07;;;1.13;;